Tamboara, Brazil
Current Conditions -  °F | °C
As of 9:00 PM on Wednesday 22 Oct 2014 (Local Time) from SBMG Reporting Station
Clear Clear  
Wind Chill: 77°   Ceiling: Unl
Heat Index: 79°   Visibility: 6mi
Dew Point: 59°   Wind: 9mph
Humidity: 54%   Direction: 120°ESE
Pressure: 30"   Gusts: NA
Location:  23.21°S, 52.5°W
Report Text: SBMG 222300Z 12008KT CAVOK 25/15 Q1016
Loading
Personal Weather Stations






























Interactive Weather Map
Tropical Storm Tracking
New forecast layout! Learn more

10-Day Weather Forecast

Advertisements
Track Severe Weather on mobile